(°C)
-1°
-2°
-2°
-2°
-1°
(°C)
-5°
-5°
-6°
-5°
-4°
-2°
-0°
ONO
ONO
ONO
ONO
O
S
SO
(km/h)
7-11
6-10
5-8
4-7
3-6
4-8
5-8
(mm)
0
0
0
0
0
0
0
(%)
0
0
0
0
0
0
0

Elevação do sol

/ -22.8°
sun-icon
UV 2
07:36
17:43
Minguante gibosa (233°)
19:54
12:47

METAR para 52.53°N 31.02°L (UMGG)

Hora Condições Temperatura/
Ponto de condensação
Vento Visibilidade Tempo Nuvens Pressão Mudança Bruto
VFR -2°C / -4°C 280º 6kt >10km - Clouds and Visibility OK 1031 No Significant change UMGG 250200Z 28003MPS CAVOK M02/M04 Q1031 R28/D NOSIG
VFR -1°C / -4°C 280º 8kt >10km - Clouds and Visibility OK 1031 No Significant change UMGG 250100Z 28004MPS CAVOK M01/M04 Q1031 R28/D NOSIG
VFR -1°C / -4°C 280º 6kt >10km - Clouds and Visibility OK 1031 No Significant change UMGG 250000Z 28003MPS CAVOK M01/M04 Q1031 R28/D NOSIG
VFR -1°C / -3°C 260º 8kt >10km - Clouds and Visibility OK 1030 No Significant change UMGG 242300Z 26004MPS CAVOK M01/M03 Q1030 R28/CLRD// NOSIG
VFR 0°C / -3°C 260º 8kt >10km - Clouds and Visibility OK 1030 No Significant change UMGG 242200Z 26004MPS CAVOK 00/M03 Q1030 R28/CLRD// NOSIG
VFR 2°C / -1°C 280º 6kt >10km - Broken Clouds 3800ft 1030 No Significant change UMGG 242100Z 28003MPS 9999 BKN038 02/M01 Q1030 R28/CLRD// NOSIG
VFR 2°C / -1°C 290º 8kt >10km - Broken Clouds 4100ft 1030 No Significant change UMGG 242000Z 29004MPS 9999 BKN041 02/M01 Q1030 R28/CLRD// NOSIG
VFR 2°C / -1°C 310º 8kt >10km - Few Clouds 4300ft
Broken Clouds 10000ft
1029 No Significant change UMGG 241900Z 31004MPS 9999 FEW043 BKN100 02/M01 Q1029 R28/CLRD// NOSIG
VFR 3°C / -1°C 310º 6kt >10km - Broken Clouds 4200ft
Broken Clouds 10000ft
1029 No Significant change UMGG 241800Z 31003MPS 9999 BKN042 BKN100 03/M01 Q1029 R28/CLRD// NOSIG
VFR 4°C / -1°C 320º 12kt >10km - Broken Clouds 3400ft
Broken Clouds 10000ft
1029 No Significant change UMGG 241700Z 32006MPS 9999 BKN034 BKN100 04/M01 Q1029 R28/CLRD// NOSIG
VFR 4°C / 0°C 310º 12kt >10km - Broken Clouds 4200ft
Broken Clouds 10000ft
1028 No Significant change. Runway 28: Wet or puddles, 51-100% contamination with <1mm, friction coefficient 0.50. UMGG 241630Z 31006MPS 9999 BKN042 BKN100 04/M00 Q1028 R28/290050 NOSIG
VFR 4°C / 0°C 310º 12kt >10km - Broken Clouds 4400ft
Broken Clouds 10000ft
1027 No Significant change. Runway 28: Wet or puddles, 51-100% contamination with <1mm, friction coefficient 0.50. UMGG 241600Z 31006MPS 9999 BKN044 BKN100 04/M00 Q1027 R28/290050 NOSIG
VFR 4°C / 0°C 310º 10kt >10km - Broken Clouds 3700ft
Broken Clouds 10000ft
1027 No Significant change. Runway 28: Wet or puddles, 51-100% contamination with <1mm, friction coefficient 0.50. UMGG 241530Z 31005MPS 9999 BKN037 BKN100 04/00 Q1027 R28/290050 NOSIG
VFR 4°C / 0°C 330º 12kt >10km - Scattered Clouds 4400ft
Broken Clouds 10000ft
1027 No Significant change. Runway 28: Wet or puddles, 51-100% contamination with <1mm, friction coefficient 0.50. UMGG 241500Z 33006MPS 9999 SCT044 BKN100 04/00 Q1027 R28/290050 NOSIG
VFR 5°C / 2°C 310º 12kt Gust 17kt >10km - Scattered Clouds 3300ft
Overcast 10000ft
1026 No Significant change. Runway 28: Wet or puddles, 51-100% contamination with <1mm, friction coefficient 0.50. UMGG 241430Z 31006G09MPS 9999 SCT033 OVC100 05/02 Q1026 R28/290050 NOSIG
VFR 5°C / 2°C 310º 12kt Gust 17kt >10km - Broken Clouds 4700ft
Overcast 10000ft
1026 No Significant change. Runway 28: Wet or puddles, 51-100% contamination with <1mm, friction coefficient 0.50. UMGG 241400Z 31006G09MPS 9999 BKN047CB OVC100 05/02 Q1026 R28/290050 NOSIG
VFR 5°C / 2°C 300º 12kt Gust 17kt >10km - Broken Clouds 4400ft
Overcast 10000ft
1026 No Significant change. Runway 28: Wet or puddles, 51-100% contamination with <1mm, friction coefficient 0.50. UMGG 241330Z 30006G09MPS 9999 BKN044CB OVC100 05/02 Q1026 R28/290050 NOSIG
VFR 5°C / 2°C 300º 10kt Gust 16kt >10km - Broken Clouds 4500ft
Broken Clouds 10000ft
1026 No Significant change. Runway 28: Wet or puddles, 51-100% contamination with <1mm, friction coefficient 0.50. UMGG 241300Z 30005G08MPS 9999 BKN045CB BKN100 05/02 Q1026 R28/290050 NOSIG
VFR 5°C / 1°C 300º 10kt Gust 16kt >10km - Broken Clouds 3200ft
Broken Clouds 10000ft
1025 No Significant change UMGG 241230Z 30005G08MPS 9999 BKN032CB BKN100 05/01 Q1025 R28/CLRD// NOSIG
VFR 5°C / 1°C 310º 12kt Gust 17kt >10km - Broken Clouds 4100ft
Broken Clouds 10000ft
1025 No Significant change UMGG 241200Z 31006G09MPS 9999 BKN041CB BKN100 05/01 Q1025 R28/CLRD// NOSIG
MVFR 7°C / 0°C 320º 14kt Gust 19kt >10km - Broken Clouds 2800ft
Overcast 10000ft
1024 No Significant change UMGG 241130Z 32007G10MPS 9999 BKN028CB OVC100 07/00 Q1024 R28/CLRD// NOSIG
MVFR 7°C / 0°C 330º 14kt Gust 19kt >10km - Broken Clouds 2500ft
Overcast 10000ft
1024 No Significant change UMGG 241100Z 33007G10MPS 9999 BKN025CB OVC100 07/00 Q1024 R28/D NOSIG
VFR 6°C / 1°C 300º 14kt Gust 19kt >10km - Broken Clouds 3700ft
Overcast 10000ft
1024 No Significant change UMGG 241030Z 30007G10MPS 9999 BKN037 OVC100 06/01 Q1024 R28/D NOSIG
MVFR 6°C / 1°C 300º 12kt Gust 17kt >10km - Broken Clouds 2700ft
Overcast 10000ft
1023 No Significant change UMGG 241000Z 30006G09MPS 9999 BKN027 OVC100 06/01 Q1023 R28/D NOSIG

VFR

-2°C / -4°C

[Mais]
Vento 280º 6kt
Visibilidade >10km
Tempo -
Nuvens Clouds and Visibility OK
Pressão 1031
Mudança No Significant change
Bruto UMGG 250200Z 28003MPS CAVOK M02/M04 Q1031 R28/D NOSIG

VFR

-1°C / -4°C

[Mais]
Vento 280º 8kt
Visibilidade >10km
Tempo -
Nuvens Clouds and Visibility OK
Pressão 1031
Mudança No Significant change
Bruto UMGG 250100Z 28004MPS CAVOK M01/M04 Q1031 R28/D NOSIG

VFR

-1°C / -4°C

[Mais]
Vento 280º 6kt
Visibilidade >10km
Tempo -
Nuvens Clouds and Visibility OK
Pressão 1031
Mudança No Significant change
Bruto UMGG 250000Z 28003MPS CAVOK M01/M04 Q1031 R28/D NOSIG

VFR

-1°C / -3°C

[Mais]
Vento 260º 8kt
Visibilidade >10km
Tempo -
Nuvens Clouds and Visibility OK
Pressão 1030
Mudança No Significant change
Bruto UMGG 242300Z 26004MPS CAVOK M01/M03 Q1030 R28/CLRD// NOSIG

VFR

0°C / -3°C

[Mais]
Vento 260º 8kt
Visibilidade >10km
Tempo -
Nuvens Clouds and Visibility OK
Pressão 1030
Mudança No Significant change
Bruto UMGG 242200Z 26004MPS CAVOK 00/M03 Q1030 R28/CLRD// NOSIG

VFR

2°C / -1°C

[Mais]
Vento 280º 6kt
Visibilidade >10km
Tempo -
Nuvens Broken Clouds 3800ft
Pressão 1030
Mudança No Significant change
Bruto UMGG 242100Z 28003MPS 9999 BKN038 02/M01 Q1030 R28/CLRD// NOSIG

VFR

2°C / -1°C

[Mais]
Vento 290º 8kt
Visibilidade >10km
Tempo -
Nuvens Broken Clouds 4100ft
Pressão 1030
Mudança No Significant change
Bruto UMGG 242000Z 29004MPS 9999 BKN041 02/M01 Q1030 R28/CLRD// NOSIG

VFR

2°C / -1°C

[Mais]
Vento 310º 8kt
Visibilidade >10km
Tempo -
Nuvens Few Clouds 4300ft
Broken Clouds 10000ft
Pressão 1029
Mudança No Significant change
Bruto UMGG 241900Z 31004MPS 9999 FEW043 BKN100 02/M01 Q1029 R28/CLRD// NOSIG

VFR

3°C / -1°C

[Mais]
Vento 310º 6kt
Visibilidade >10km
Tempo -
Nuvens Broken Clouds 4200ft
Broken Clouds 10000ft
Pressão 1029
Mudança No Significant change
Bruto UMGG 241800Z 31003MPS 9999 BKN042 BKN100 03/M01 Q1029 R28/CLRD// NOSIG

VFR

4°C / -1°C

[Mais]
Vento 320º 12kt
Visibilidade >10km
Tempo -
Nuvens Broken Clouds 3400ft
Broken Clouds 10000ft
Pressão 1029
Mudança No Significant change
Bruto UMGG 241700Z 32006MPS 9999 BKN034 BKN100 04/M01 Q1029 R28/CLRD// NOSIG

VFR

4°C / 0°C

[Mais]
Vento 310º 12kt
Visibilidade >10km
Tempo -
Nuvens Broken Clouds 4200ft
Broken Clouds 10000ft
Pressão 1028
Mudança No Significant change. Runway 28: Wet or puddles, 51-100% contamination with <1mm, friction coefficient 0.50.
Bruto UMGG 241630Z 31006MPS 9999 BKN042 BKN100 04/M00 Q1028 R28/290050 NOSIG

VFR

4°C / 0°C

[Mais]
Vento 310º 12kt
Visibilidade >10km
Tempo -
Nuvens Broken Clouds 4400ft
Broken Clouds 10000ft
Pressão 1027
Mudança No Significant change. Runway 28: Wet or puddles, 51-100% contamination with <1mm, friction coefficient 0.50.
Bruto UMGG 241600Z 31006MPS 9999 BKN044 BKN100 04/M00 Q1027 R28/290050 NOSIG

VFR

4°C / 0°C

[Mais]
Vento 310º 10kt
Visibilidade >10km
Tempo -
Nuvens Broken Clouds 3700ft
Broken Clouds 10000ft
Pressão 1027
Mudança No Significant change. Runway 28: Wet or puddles, 51-100% contamination with <1mm, friction coefficient 0.50.
Bruto UMGG 241530Z 31005MPS 9999 BKN037 BKN100 04/00 Q1027 R28/290050 NOSIG

VFR

4°C / 0°C

[Mais]
Vento 330º 12kt
Visibilidade >10km
Tempo -
Nuvens Scattered Clouds 4400ft
Broken Clouds 10000ft
Pressão 1027
Mudança No Significant change. Runway 28: Wet or puddles, 51-100% contamination with <1mm, friction coefficient 0.50.
Bruto UMGG 241500Z 33006MPS 9999 SCT044 BKN100 04/00 Q1027 R28/290050 NOSIG

VFR

5°C / 2°C

[Mais]
Vento 310º 12kt Gust 17kt
Visibilidade >10km
Tempo -
Nuvens Scattered Clouds 3300ft
Overcast 10000ft
Pressão 1026
Mudança No Significant change. Runway 28: Wet or puddles, 51-100% contamination with <1mm, friction coefficient 0.50.
Bruto UMGG 241430Z 31006G09MPS 9999 SCT033 OVC100 05/02 Q1026 R28/290050 NOSIG

VFR

5°C / 2°C

[Mais]
Vento 310º 12kt Gust 17kt
Visibilidade >10km
Tempo -
Nuvens Broken Clouds 4700ft
Overcast 10000ft
Pressão 1026
Mudança No Significant change. Runway 28: Wet or puddles, 51-100% contamination with <1mm, friction coefficient 0.50.
Bruto UMGG 241400Z 31006G09MPS 9999 BKN047CB OVC100 05/02 Q1026 R28/290050 NOSIG

VFR

5°C / 2°C

[Mais]
Vento 300º 12kt Gust 17kt
Visibilidade >10km
Tempo -
Nuvens Broken Clouds 4400ft
Overcast 10000ft
Pressão 1026
Mudança No Significant change. Runway 28: Wet or puddles, 51-100% contamination with <1mm, friction coefficient 0.50.
Bruto UMGG 241330Z 30006G09MPS 9999 BKN044CB OVC100 05/02 Q1026 R28/290050 NOSIG

VFR

5°C / 2°C

[Mais]
Vento 300º 10kt Gust 16kt
Visibilidade >10km
Tempo -
Nuvens Broken Clouds 4500ft
Broken Clouds 10000ft
Pressão 1026
Mudança No Significant change. Runway 28: Wet or puddles, 51-100% contamination with <1mm, friction coefficient 0.50.
Bruto UMGG 241300Z 30005G08MPS 9999 BKN045CB BKN100 05/02 Q1026 R28/290050 NOSIG

VFR

5°C / 1°C

[Mais]
Vento 300º 10kt Gust 16kt
Visibilidade >10km
Tempo -
Nuvens Broken Clouds 3200ft
Broken Clouds 10000ft
Pressão 1025
Mudança No Significant change
Bruto UMGG 241230Z 30005G08MPS 9999 BKN032CB BKN100 05/01 Q1025 R28/CLRD// NOSIG

VFR

5°C / 1°C

[Mais]
Vento 310º 12kt Gust 17kt
Visibilidade >10km
Tempo -
Nuvens Broken Clouds 4100ft
Broken Clouds 10000ft
Pressão 1025
Mudança No Significant change
Bruto UMGG 241200Z 31006G09MPS 9999 BKN041CB BKN100 05/01 Q1025 R28/CLRD// NOSIG

MVFR

7°C / 0°C

[Mais]
Vento 320º 14kt Gust 19kt
Visibilidade >10km
Tempo -
Nuvens Broken Clouds 2800ft
Overcast 10000ft
Pressão 1024
Mudança No Significant change
Bruto UMGG 241130Z 32007G10MPS 9999 BKN028CB OVC100 07/00 Q1024 R28/CLRD// NOSIG

MVFR

7°C / 0°C

[Mais]
Vento 330º 14kt Gust 19kt
Visibilidade >10km
Tempo -
Nuvens Broken Clouds 2500ft
Overcast 10000ft
Pressão 1024
Mudança No Significant change
Bruto UMGG 241100Z 33007G10MPS 9999 BKN025CB OVC100 07/00 Q1024 R28/D NOSIG

VFR

6°C / 1°C

[Mais]
Vento 300º 14kt Gust 19kt
Visibilidade >10km
Tempo -
Nuvens Broken Clouds 3700ft
Overcast 10000ft
Pressão 1024
Mudança No Significant change
Bruto UMGG 241030Z 30007G10MPS 9999 BKN037 OVC100 06/01 Q1024 R28/D NOSIG

MVFR

6°C / 1°C

[Mais]
Vento 300º 12kt Gust 17kt
Visibilidade >10km
Tempo -
Nuvens Broken Clouds 2700ft
Overcast 10000ft
Pressão 1023
Mudança No Significant change
Bruto UMGG 241000Z 30006G09MPS 9999 BKN027 OVC100 06/01 Q1023 R28/D NOSIG

TAF para 52.53°N 31.02°L (UMGG)

From till


From till Wind variable 4kt. Visibility 10km or more. Scattered Clouds 1500ft.
Temporarly from till Visibility 1200m. Mist . Broken Clouds 400ft.
Temporarly from till Wind 180º 14kt.

Bruto: TAF UMGG 242251Z 2500/2524 VRB02MPS 9999 SCT015 TEMPO 2500/2505 1200 BR BKN004 TEMPO 2505/2518 18007MPS

Imagens atuais de satélite e precipitação para 52.53°N 31.02°L

O marcador de lugar é colocado em 52.53°N 31.02°L. [Mais]

A imagem de satélite em tempo real combina luz visível durante o dia com radiação infravermelha durante a noite. À noite, a imagem não é escura, pois a radiação infravermelha pode detectar diferenças de temperatura. Infelizmente, nuvens baixas e neblina são difíceis de distinguir das temperaturas do solo e, portanto, podem ser quase invisíveis durante a noite. As imagens de satélite Meteosat para a Europa são atualizadas em tempo real a cada 5 minutos. GOES-16/GOES-17 ( América do Norte e do Sul) e Himawari (Ásia) são atualizadas a cada 10 minutos.

Copyright 2021 EUMETSAT / meteoblue. / Copyright 2021 meteoblue

Radar e precipitação nowcast para 52.53°N 31.02°L

Chuvisco
Leve
Moderado
Forte
Muito forte
Granizo

O marcador do lugar é colocado em 52.53°N 31.02°L. Esta animação mostra o radar de precipitação para a última hora, assim como a 1h previsão. A queda de neve pode ser invisível para o radar. A intensidade da precipitação é codificada por cores, variando do azul claro ao laranja.